sensor_id;sensor_type;location;lat;lon;timestamp;P1;durP1;ratioP1;P2;durP2;ratioP2
22705;SDS011;11520;51.198;4.468;2022-12-18T00:00:47;117.53;;;48.25;;
22705;SDS011;11520;51.198;4.468;2022-12-18T00:03:13;119.65;;;48.78;;
22705;SDS011;11520;51.198;4.468;2022-12-18T00:05:49;117.68;;;49.38;;
22705;SDS011;11520;51.198;4.468;2022-12-18T00:08:18;123.95;;;49.25;;
22705;SDS011;11520;51.198;4.468;2022-12-18T00:10:44;127.03;;;51.65;;
22705;SDS011;11520;51.198;4.468;2022-12-18T00:13:10;120.00;;;51.47;;
22705;SDS011;11520;51.198;4.468;2022-12-18T00:15:37;119.85;;;50.47;;
22705;SDS011;11520;51.198;4.468;2022-12-18T00:18:04;127.90;;;51.85;;
22705;SDS011;11520;51.198;4.468;2022-12-18T00:20:30;128.32;;;52.53;;
22705;SDS011;11520;51.198;4.468;2022-12-18T00:23:00;125.35;;;52.30;;
22705;SDS011;11520;51.198;4.468;2022-12-18T00:25:26;132.32;;;53.72;;
22705;SDS011;11520;51.198;4.468;2022-12-18T00:27:51;127.03;;;51.58;;
22705;SDS011;11520;51.198;4.468;2022-12-18T00:30:17;125.88;;;53.72;;
22705;SDS011;11520;51.198;4.468;2022-12-18T00:32:43;130.93;;;52.60;;
22705;SDS011;11520;51.198;4.468;2022-12-18T00:35:09;123.78;;;50.72;;
22705;SDS011;11520;51.198;4.468;2022-12-18T00:37:36;131.55;;;53.17;;
22705;SDS011;11520;51.198;4.468;2022-12-18T00:40:02;123.78;;;50.58;;
22705;SDS011;11520;51.198;4.468;2022-12-18T00:42:28;121.85;;;51.22;;
22705;SDS011;11520;51.198;4.468;2022-12-18T00:45:13;124.82;;;50.08;;
22705;SDS011;11520;51.198;4.468;2022-12-18T00:47:39;127.03;;;51.60;;
22705;SDS011;11520;51.198;4.468;2022-12-18T00:50:05;128.63;;;51.45;;
22705;SDS011;11520;51.198;4.468;2022-12-18T00:52:32;124.22;;;52.05;;
22705;SDS011;11520;51.198;4.468;2022-12-18T00:54:58;118.40;;;49.60;;
22705;SDS011;11520;51.198;4.468;2022-12-18T00:57:23;120.35;;;49.50;;
22705;SDS011;11520;51.198;4.468;2022-12-18T00:59:50;112.82;;;49.20;;
22705;SDS011;11520;51.198;4.468;2022-12-18T01:02:15;118.75;;;47.85;;
22705;SDS011;11520;51.198;4.468;2022-12-18T01:04:43;112.38;;;46.90;;
22705;SDS011;11520;51.198;4.468;2022-12-18T01:07:09;113.22;;;46.75;;
22705;SDS011;11520;51.198;4.468;2022-12-18T01:09:35;112.28;;;47.70;;
22705;SDS011;11520;51.198;4.468;2022-12-18T01:12:01;120.68;;;48.05;;
22705;SDS011;11520;51.198;4.468;2022-12-18T01:14:26;113.43;;;47.20;;
22705;SDS011;11520;51.198;4.468;2022-12-18T01:16:52;113.63;;;46.95;;
22705;SDS011;11520;51.198;4.468;2022-12-18T01:19:18;107.25;;;47.20;;
22705;SDS011;11520;51.198;4.468;2022-12-18T01:21:43;106.43;;;44.75;;
22705;SDS011;11520;51.198;4.468;2022-12-18T01:24:09;119.70;;;49.30;;
22705;SDS011;11520;51.198;4.468;2022-12-18T01:26:39;115.50;;;47.25;;
22705;SDS011;11520;51.198;4.468;2022-12-18T01:29:05;113.13;;;46.42;;
22705;SDS011;11520;51.198;4.468;2022-12-18T01:34:01;107.55;;;45.80;;
22705;SDS011;11520;51.198;4.468;2022-12-18T01:36:30;109.65;;;46.45;;
22705;SDS011;11520;51.198;4.468;2022-12-18T01:38:59;107.00;;;45.00;;
22705;SDS011;11520;51.198;4.468;2022-12-18T01:41:27;118.25;;;47.60;;
22705;SDS011;11520;51.198;4.468;2022-12-18T01:52:40;100.03;;;43.67;;
22705;SDS011;11520;51.198;4.468;2022-12-18T01:55:08;104.50;;;43.17;;
22705;SDS011;11520;51.198;4.468;2022-12-18T01:57:36;95.18;;;43.10;;
22705;SDS011;11520;51.198;4.468;2022-12-18T02:00:22;97.82;;;43.45;;
22705;SDS011;11520;51.198;4.468;2022-12-18T02:02:48;100.65;;;43.83;;
22705;SDS011;11520;51.198;4.468;2022-12-18T02:05:16;107.28;;;43.00;;
22705;SDS011;11520;51.198;4.468;2022-12-18T02:11:00;98.95;;;40.97;;
22705;SDS011;11520;51.198;4.468;2022-12-18T02:13:36;100.50;;;42.53;;
22705;SDS011;11520;51.198;4.468;2022-12-18T02:18:59;89.75;;;39.20;;
22705;SDS011;11520;51.198;4.468;2022-12-18T02:21:36;93.57;;;40.88;;
22705;SDS011;11520;51.198;4.468;2022-12-18T02:26:55;92.22;;;38.53;;
22705;SDS011;11520;51.198;4.468;2022-12-18T02:29:26;91.80;;;39.20;;
22705;SDS011;11520;51.198;4.468;2022-12-18T02:31:58;90.18;;;38.15;;
22705;SDS011;11520;51.198;4.468;2022-12-18T02:34:28;83.85;;;38.25;;
22705;SDS011;11520;51.198;4.468;2022-12-18T02:36:56;84.57;;;37.95;;
22705;SDS011;11520;51.198;4.468;2022-12-18T02:39:25;84.20;;;36.63;;
22705;SDS011;11520;51.198;4.468;2022-12-18T02:41:55;81.78;;;36.65;;
22705;SDS011;11520;51.198;4.468;2022-12-18T02:44:22;86.10;;;38.22;;
22705;SDS011;11520;51.198;4.468;2022-12-18T02:46:52;76.00;;;36.30;;
22705;SDS011;11520;51.198;4.468;2022-12-18T02:55:01;83.95;;;36.13;;
22705;SDS011;11520;51.198;4.468;2022-12-18T02:57:40;84.80;;;36.50;;
22705;SDS011;11520;51.198;4.468;2022-12-18T03:00:21;76.53;;;36.10;;
22705;SDS011;11520;51.198;4.468;2022-12-18T03:03:24;79.18;;;35.78;;
22705;SDS011;11520;51.198;4.468;2022-12-18T03:06:10;85.53;;;36.20;;
22705;SDS011;11520;51.198;4.468;2022-12-18T03:08:42;82.30;;;34.88;;
22705;SDS011;11520;51.198;4.468;2022-12-18T03:11:13;59.53;;;26.83;;
22705;SDS011;11520;51.198;4.468;2022-12-18T03:13:45;80.53;;;34.20;;
22705;SDS011;11520;51.198;4.468;2022-12-18T03:16:21;75.90;;;35.33;;
22705;SDS011;11520;51.198;4.468;2022-12-18T03:21:52;72.60;;;31.85;;
22705;SDS011;11520;51.198;4.468;2022-12-18T03:24:20;73.85;;;32.75;;
22705;SDS011;11520;51.198;4.468;2022-12-18T03:26:49;71.00;;;31.52;;
22705;SDS011;11520;51.198;4.468;2022-12-18T03:29:21;71.90;;;33.50;;
22705;SDS011;11520;51.198;4.468;2022-12-18T03:32:16;72.78;;;31.48;;
22705;SDS011;11520;51.198;4.468;2022-12-18T03:34:49;66.10;;;30.83;;
22705;SDS011;11520;51.198;4.468;2022-12-18T03:37:16;71.88;;;31.75;;
22705;SDS011;11520;51.198;4.468;2022-12-18T03:39:42;62.03;;;29.83;;
22705;SDS011;11520;51.198;4.468;2022-12-18T03:42:28;64.95;;;31.15;;
22705;SDS011;11520;51.198;4.468;2022-12-18T03:45:09;65.80;;;31.48;;
22705;SDS011;11520;51.198;4.468;2022-12-18T03:50:20;63.47;;;30.15;;
22705;SDS011;11520;51.198;4.468;2022-12-18T03:55:54;66.03;;;29.50;;
22705;SDS011;11520;51.198;4.468;2022-12-18T03:58:23;66.80;;;30.85;;
22705;SDS011;11520;51.198;4.468;2022-12-18T04:00:51;61.63;;;29.60;;
22705;SDS011;11520;51.198;4.468;2022-12-18T04:03:21;68.30;;;30.33;;
22705;SDS011;11520;51.198;4.468;2022-12-18T04:05:49;67.40;;;29.08;;
22705;SDS011;11520;51.198;4.468;2022-12-18T04:08:17;63.88;;;28.33;;
22705;SDS011;11520;51.198;4.468;2022-12-18T04:10:46;64.70;;;29.17;;
22705;SDS011;11520;51.198;4.468;2022-12-18T04:13:13;63.58;;;29.58;;
22705;SDS011;11520;51.198;4.468;2022-12-18T04:15:47;61.70;;;29.70;;
22705;SDS011;11520;51.198;4.468;2022-12-18T04:18:15;63.20;;;29.85;;
22705;SDS011;11520;51.198;4.468;2022-12-18T04:20:40;64.22;;;29.80;;
22705;SDS011;11520;51.198;4.468;2022-12-18T04:23:07;63.13;;;29.27;;
22705;SDS011;11520;51.198;4.468;2022-12-18T04:25:32;62.17;;;30.33;;
22705;SDS011;11520;51.198;4.468;2022-12-18T04:27:58;58.42;;;29.42;;
22705;SDS011;11520;51.198;4.468;2022-12-18T04:30:25;57.38;;;28.40;;
22705;SDS011;11520;51.198;4.468;2022-12-18T04:32:56;60.35;;;29.05;;
22705;SDS011;11520;51.198;4.468;2022-12-18T04:35:24;55.70;;;28.48;;
22705;SDS011;11520;51.198;4.468;2022-12-18T04:37:51;61.28;;;30.25;;
22705;SDS011;11520;51.198;4.468;2022-12-18T04:40:18;59.63;;;29.42;;
22705;SDS011;11520;51.198;4.468;2022-12-18T04:45:12;60.40;;;28.10;;
22705;SDS011;11520;51.198;4.468;2022-12-18T04:47:37;63.00;;;29.98;;
22705;SDS011;11520;51.198;4.468;2022-12-18T04:50:03;62.38;;;27.83;;
22705;SDS011;11520;51.198;4.468;2022-12-18T04:52:29;62.45;;;29.23;;
22705;SDS011;11520;51.198;4.468;2022-12-18T04:54:56;64.35;;;29.25;;
22705;SDS011;11520;51.198;4.468;2022-12-18T04:57:21;60.65;;;29.83;;
22705;SDS011;11520;51.198;4.468;2022-12-18T04:59:48;61.30;;;29.50;;
22705;SDS011;11520;51.198;4.468;2022-12-18T05:02:30;57.42;;;28.92;;
22705;SDS011;11520;51.198;4.468;2022-12-18T05:04:56;53.22;;;27.05;;
22705;SDS011;11520;51.198;4.468;2022-12-18T05:07:22;58.63;;;28.65;;
22705;SDS011;11520;51.198;4.468;2022-12-18T05:09:50;59.08;;;29.15;;
22705;SDS011;11520;51.198;4.468;2022-12-18T05:12:17;56.85;;;27.25;;
22705;SDS011;11520;51.198;4.468;2022-12-18T05:14:42;60.50;;;27.83;;
22705;SDS011;11520;51.198;4.468;2022-12-18T05:17:08;60.88;;;27.63;;
22705;SDS011;11520;51.198;4.468;2022-12-18T05:19:34;56.88;;;27.75;;
22705;SDS011;11520;51.198;4.468;2022-12-18T05:22:00;56.40;;;27.52;;
22705;SDS011;11520;51.198;4.468;2022-12-18T05:24:27;65.07;;;28.25;;
22705;SDS011;11520;51.198;4.468;2022-12-18T05:26:52;60.13;;;28.42;;
22705;SDS011;11520;51.198;4.468;2022-12-18T05:29:18;57.30;;;27.63;;
22705;SDS011;11520;51.198;4.468;2022-12-18T05:31:44;57.72;;;28.80;;
22705;SDS011;11520;51.198;4.468;2022-12-18T05:34:11;56.20;;;28.17;;
22705;SDS011;11520;51.198;4.468;2022-12-18T05:36:37;60.75;;;28.15;;
22705;SDS011;11520;51.198;4.468;2022-12-18T05:39:05;54.92;;;27.48;;
22705;SDS011;11520;51.198;4.468;2022-12-18T05:41:32;54.80;;;26.63;;
22705;SDS011;11520;51.198;4.468;2022-12-18T05:43:58;54.35;;;26.77;;
22705;SDS011;11520;51.198;4.468;2022-12-18T05:46:24;55.55;;;25.75;;
22705;SDS011;11520;51.198;4.468;2022-12-18T05:48:49;57.92;;;27.27;;
22705;SDS011;11520;51.198;4.468;2022-12-18T05:51:17;50.70;;;26.35;;
22705;SDS011;11520;51.198;4.468;2022-12-18T05:53:45;53.28;;;26.10;;
22705;SDS011;11520;51.198;4.468;2022-12-18T05:56:16;52.83;;;25.95;;
22705;SDS011;11520;51.198;4.468;2022-12-18T05:58:44;56.70;;;27.23;;
22705;SDS011;11520;51.198;4.468;2022-12-18T06:01:12;49.80;;;25.33;;
22705;SDS011;11520;51.198;4.468;2022-12-18T06:03:39;54.20;;;26.50;;
22705;SDS011;11520;51.198;4.468;2022-12-18T06:06:12;52.03;;;25.63;;
22705;SDS011;11520;51.198;4.468;2022-12-18T06:08:41;49.08;;;25.48;;
22705;SDS011;11520;51.198;4.468;2022-12-18T06:11:06;53.20;;;27.13;;
22705;SDS011;11520;51.198;4.468;2022-12-18T06:13:32;56.88;;;27.80;;
22705;SDS011;11520;51.198;4.468;2022-12-18T06:16:01;52.00;;;24.70;;
22705;SDS011;11520;51.198;4.468;2022-12-18T06:18:28;58.17;;;25.60;;
22705;SDS011;11520;51.198;4.468;2022-12-18T06:20:55;44.30;;;24.17;;
22705;SDS011;11520;51.198;4.468;2022-12-18T06:23:21;51.97;;;24.67;;
22705;SDS011;11520;51.198;4.468;2022-12-18T06:25:48;52.55;;;24.48;;
22705;SDS011;11520;51.198;4.468;2022-12-18T06:28:14;52.92;;;23.40;;
22705;SDS011;11520;51.198;4.468;2022-12-18T06:30:43;45.80;;;22.13;;
22705;SDS011;11520;51.198;4.468;2022-12-18T06:33:09;47.42;;;23.17;;
22705;SDS011;11520;51.198;4.468;2022-12-18T06:35:35;50.65;;;24.85;;
22705;SDS011;11520;51.198;4.468;2022-12-18T06:38:01;46.20;;;23.67;;
22705;SDS011;11520;51.198;4.468;2022-12-18T06:40:27;46.35;;;23.05;;
22705;SDS011;11520;51.198;4.468;2022-12-18T06:42:54;46.80;;;24.58;;
22705;SDS011;11520;51.198;4.468;2022-12-18T06:45:30;48.15;;;23.77;;
22705;SDS011;11520;51.198;4.468;2022-12-18T06:47:56;46.70;;;23.70;;
22705;SDS011;11520;51.198;4.468;2022-12-18T06:50:23;47.97;;;23.92;;
22705;SDS011;11520;51.198;4.468;2022-12-18T06:52:50;48.90;;;23.17;;
22705;SDS011;11520;51.198;4.468;2022-12-18T06:55:15;52.47;;;25.17;;
22705;SDS011;11520;51.198;4.468;2022-12-18T06:57:42;49.80;;;24.58;;
22705;SDS011;11520;51.198;4.468;2022-12-18T07:00:08;47.00;;;23.85;;
22705;SDS011;11520;51.198;4.468;2022-12-18T07:02:35;47.67;;;23.98;;
22705;SDS011;11520;51.198;4.468;2022-12-18T07:05:00;48.33;;;23.75;;
22705;SDS011;11520;51.198;4.468;2022-12-18T07:07:26;49.25;;;24.48;;
22705;SDS011;11520;51.198;4.468;2022-12-18T07:09:52;46.83;;;23.50;;
22705;SDS011;11520;51.198;4.468;2022-12-18T07:12:19;48.10;;;22.40;;
22705;SDS011;11520;51.198;4.468;2022-12-18T07:17:14;47.72;;;23.70;;
22705;SDS011;11520;51.198;4.468;2022-12-18T07:19:41;46.65;;;22.60;;
22705;SDS011;11520;51.198;4.468;2022-12-18T07:22:08;53.97;;;24.55;;
22705;SDS011;11520;51.198;4.468;2022-12-18T07:24:34;52.72;;;25.77;;
22705;SDS011;11520;51.198;4.468;2022-12-18T07:27:00;47.40;;;23.33;;
22705;SDS011;11520;51.198;4.468;2022-12-18T07:29:26;47.72;;;23.67;;
22705;SDS011;11520;51.198;4.468;2022-12-18T07:31:53;48.05;;;22.70;;
22705;SDS011;11520;51.198;4.468;2022-12-18T07:34:18;49.03;;;23.58;;
22705;SDS011;11520;51.198;4.468;2022-12-18T07:36:44;45.92;;;23.90;;
22705;SDS011;11520;51.198;4.468;2022-12-18T07:39:13;40.47;;;22.40;;
22705;SDS011;11520;51.198;4.468;2022-12-18T07:41:40;50.35;;;23.45;;
22705;SDS011;11520;51.198;4.468;2022-12-18T07:44:12;45.65;;;21.92;;
22705;SDS011;11520;51.198;4.468;2022-12-18T07:46:39;43.38;;;22.48;;
22705;SDS011;11520;51.198;4.468;2022-12-18T07:49:06;43.72;;;22.38;;
22705;SDS011;11520;51.198;4.468;2022-12-18T07:51:32;45.88;;;23.20;;
22705;SDS011;11520;51.198;4.468;2022-12-18T07:53:58;43.63;;;22.70;;
22705;SDS011;11520;51.198;4.468;2022-12-18T07:56:23;42.15;;;23.15;;
22705;SDS011;11520;51.198;4.468;2022-12-18T07:58:51;42.30;;;21.98;;
22705;SDS011;11520;51.198;4.468;2022-12-18T08:01:18;39.72;;;21.65;;
22705;SDS011;11520;51.198;4.468;2022-12-18T08:03:45;47.13;;;23.27;;
22705;SDS011;11520;51.198;4.468;2022-12-18T08:06:14;43.20;;;22.10;;
22705;SDS011;11520;51.198;4.468;2022-12-18T08:08:40;41.25;;;21.70;;
22705;SDS011;11520;51.198;4.468;2022-12-18T08:13:35;39.80;;;20.70;;
22705;SDS011;11520;51.198;4.468;2022-12-18T08:16:02;37.92;;;20.73;;
22705;SDS011;11520;51.198;4.468;2022-12-18T08:18:34;39.20;;;19.75;;
22705;SDS011;11520;51.198;4.468;2022-12-18T08:21:09;37.83;;;19.25;;
22705;SDS011;11520;51.198;4.468;2022-12-18T08:23:40;34.13;;;19.02;;
22705;SDS011;11520;51.198;4.468;2022-12-18T08:26:06;36.88;;;19.05;;
22705;SDS011;11520;51.198;4.468;2022-12-18T08:28:33;39.30;;;20.50;;
22705;SDS011;11520;51.198;4.468;2022-12-18T08:31:10;39.83;;;19.65;;
22705;SDS011;11520;51.198;4.468;2022-12-18T08:33:36;41.13;;;20.55;;
22705;SDS011;11520;51.198;4.468;2022-12-18T08:36:04;38.83;;;20.55;;
22705;SDS011;11520;51.198;4.468;2022-12-18T08:38:31;42.20;;;21.08;;
22705;SDS011;11520;51.198;4.468;2022-12-18T08:40:58;41.20;;;21.23;;
22705;SDS011;11520;51.198;4.468;2022-12-18T08:43:26;38.20;;;19.63;;
22705;SDS011;11520;51.198;4.468;2022-12-18T08:46:10;31.50;;;18.38;;
22705;SDS011;11520;51.198;4.468;2022-12-18T08:48:36;34.58;;;18.88;;
22705;SDS011;11520;51.198;4.468;2022-12-18T08:51:02;36.80;;;17.65;;
22705;SDS011;11520;51.198;4.468;2022-12-18T08:53:27;38.78;;;18.02;;
22705;SDS011;11520;51.198;4.468;2022-12-18T08:55:56;29.65;;;17.38;;
22705;SDS011;11520;51.198;4.468;2022-12-18T08:58:22;34.40;;;18.40;;
22705;SDS011;11520;51.198;4.468;2022-12-18T09:00:47;30.83;;;17.63;;
22705;SDS011;11520;51.198;4.468;2022-12-18T09:03:14;37.83;;;18.33;;
22705;SDS011;11520;51.198;4.468;2022-12-18T09:05:41;34.08;;;18.50;;
22705;SDS011;11520;51.198;4.468;2022-12-18T09:08:06;33.67;;;18.02;;
22705;SDS011;11520;51.198;4.468;2022-12-18T09:10:34;32.95;;;17.92;;
22705;SDS011;11520;51.198;4.468;2022-12-18T09:13:06;33.33;;;18.65;;
22705;SDS011;11520;51.198;4.468;2022-12-18T09:15:32;33.30;;;17.65;;
22705;SDS011;11520;51.198;4.468;2022-12-18T09:17:58;32.63;;;17.83;;
22705;SDS011;11520;51.198;4.468;2022-12-18T09:20:23;31.50;;;17.90;;
22705;SDS011;11520;51.198;4.468;2022-12-18T09:22:49;34.85;;;19.30;;
22705;SDS011;11520;51.198;4.468;2022-12-18T09:25:17;30.52;;;17.13;;
22705;SDS011;11520;51.198;4.468;2022-12-18T09:27:42;30.00;;;17.58;;
22705;SDS011;11520;51.198;4.468;2022-12-18T09:30:11;31.73;;;17.17;;
22705;SDS011;11520;51.198;4.468;2022-12-18T09:32:37;27.77;;;16.20;;
22705;SDS011;11520;51.198;4.468;2022-12-18T09:35:04;33.50;;;17.83;;
22705;SDS011;11520;51.198;4.468;2022-12-18T09:37:30;35.75;;;17.30;;
22705;SDS011;11520;51.198;4.468;2022-12-18T09:39:56;30.20;;;16.08;;
22705;SDS011;11520;51.198;4.468;2022-12-18T09:42:21;27.23;;;15.13;;
22705;SDS011;11520;51.198;4.468;2022-12-18T09:44:51;24.60;;;14.68;;
22705;SDS011;11520;51.198;4.468;2022-12-18T09:49:50;25.77;;;14.30;;
22705;SDS011;11520;51.198;4.468;2022-12-18T09:52:27;26.80;;;15.32;;
22705;SDS011;11520;51.198;4.468;2022-12-18T09:55:02;25.10;;;15.05;;
22705;SDS011;11520;51.198;4.468;2022-12-18T09:57:49;25.30;;;14.45;;
22705;SDS011;11520;51.198;4.468;2022-12-18T10:00:22;27.75;;;15.30;;
22705;SDS011;11520;51.198;4.468;2022-12-18T10:02:50;25.38;;;14.25;;
22705;SDS011;11520;51.198;4.468;2022-12-18T10:05:25;26.92;;;15.10;;
22705;SDS011;11520;51.198;4.468;2022-12-18T10:08:05;27.55;;;14.93;;
22705;SDS011;11520;51.198;4.468;2022-12-18T10:10:48;28.10;;;14.90;;
22705;SDS011;11520;51.198;4.468;2022-12-18T10:16:13;28.00;;;16.48;;
22705;SDS011;11520;51.198;4.468;2022-12-18T10:21:32;28.02;;;15.10;;
22705;SDS011;11520;51.198;4.468;2022-12-18T10:24:24;28.05;;;15.75;;
22705;SDS011;11520;51.198;4.468;2022-12-18T10:27:16;27.77;;;15.00;;
22705;SDS011;11520;51.198;4.468;2022-12-18T10:29:47;24.80;;;14.63;;
22705;SDS011;11520;51.198;4.468;2022-12-18T10:32:16;20.50;;;12.77;;
22705;SDS011;11520;51.198;4.468;2022-12-18T10:34:48;22.77;;;13.38;;
22705;SDS011;11520;51.198;4.468;2022-12-18T10:37:17;22.73;;;13.77;;
22705;SDS011;11520;51.198;4.468;2022-12-18T10:42:34;24.38;;;14.25;;
22705;SDS011;11520;51.198;4.468;2022-12-18T10:45:08;23.75;;;14.13;;
22705;SDS011;11520;51.198;4.468;2022-12-18T10:47:47;24.83;;;13.82;;
22705;SDS011;11520;51.198;4.468;2022-12-18T10:50:34;26.05;;;14.45;;
22705;SDS011;11520;51.198;4.468;2022-12-18T10:53:13;22.83;;;13.63;;
22705;SDS011;11520;51.198;4.468;2022-12-18T10:55:44;23.13;;;13.82;;
22705;SDS011;11520;51.198;4.468;2022-12-18T11:06:15;30.77;;;16.17;;
22705;SDS011;11520;51.198;4.468;2022-12-18T11:09:19;26.40;;;14.82;;
22705;SDS011;11520;51.198;4.468;2022-12-18T11:11:52;26.42;;;14.50;;
22705;SDS011;11520;51.198;4.468;2022-12-18T11:14:41;23.98;;;13.63;;
22705;SDS011;11520;51.198;4.468;2022-12-18T11:20:03;21.77;;;13.35;;
22705;SDS011;11520;51.198;4.468;2022-12-18T11:23:04;22.42;;;12.85;;
22705;SDS011;11520;51.198;4.468;2022-12-18T11:25:36;27.98;;;13.48;;
22705;SDS011;11520;51.198;4.468;2022-12-18T11:28:03;23.52;;;12.70;;
22705;SDS011;11520;51.198;4.468;2022-12-18T11:30:35;22.77;;;13.10;;
22705;SDS011;11520;51.198;4.468;2022-12-18T11:33:05;23.92;;;13.13;;
22705;SDS011;11520;51.198;4.468;2022-12-18T11:35:47;26.70;;;14.18;;
22705;SDS011;11520;51.198;4.468;2022-12-18T11:38:29;23.83;;;13.45;;
22705;SDS011;11520;51.198;4.468;2022-12-18T11:44:11;23.58;;;14.20;;
22705;SDS011;11520;51.198;4.468;2022-12-18T11:46:59;25.73;;;14.25;;
22705;SDS011;11520;51.198;4.468;2022-12-18T11:49:33;23.48;;;12.60;;
22705;SDS011;11520;51.198;4.468;2022-12-18T11:54:55;26.05;;;13.52;;
22705;SDS011;11520;51.198;4.468;2022-12-18T11:57:36;21.42;;;13.07;;
22705;SDS011;11520;51.198;4.468;2022-12-18T12:00:21;24.52;;;13.70;;
22705;SDS011;11520;51.198;4.468;2022-12-18T12:03:11;24.83;;;13.98;;
22705;SDS011;11520;51.198;4.468;2022-12-18T12:05:51;27.10;;;14.73;;
22705;SDS011;11520;51.198;4.468;2022-12-18T12:08:41;26.00;;;15.32;;
22705;SDS011;11520;51.198;4.468;2022-12-18T12:23:12;25.50;;;15.00;;
22705;SDS011;11520;51.198;4.468;2022-12-18T12:34:44;26.50;;;14.80;;
22705;SDS011;11520;51.198;4.468;2022-12-18T12:40:22;27.58;;;14.38;;
22705;SDS011;11520;51.198;4.468;2022-12-18T12:42:58;29.50;;;15.70;;
22705;SDS011;11520;51.198;4.468;2022-12-18T12:45:48;26.08;;;14.68;;
22705;SDS011;11520;51.198;4.468;2022-12-18T12:53:46;23.85;;;14.30;;
22705;SDS011;11520;51.198;4.468;2022-12-18T12:56:13;26.45;;;15.23;;
22705;SDS011;11520;51.198;4.468;2022-12-18T13:04:34;25.50;;;14.98;;
22705;SDS011;11520;51.198;4.468;2022-12-18T13:07:15;26.90;;;15.73;;
22705;SDS011;11520;51.198;4.468;2022-12-18T13:13:03;26.05;;;14.82;;
22705;SDS011;11520;51.198;4.468;2022-12-18T13:20:50;26.38;;;15.48;;
22705;SDS011;11520;51.198;4.468;2022-12-18T13:23:37;27.48;;;15.43;;
22705;SDS011;11520;51.198;4.468;2022-12-18T13:31:12;26.73;;;16.33;;
22705;SDS011;11520;51.198;4.468;2022-12-18T13:33:42;25.33;;;14.77;;
22705;SDS011;11520;51.198;4.468;2022-12-18T13:41:52;28.30;;;15.05;;
22705;SDS011;11520;51.198;4.468;2022-12-18T13:44:59;29.38;;;16.05;;
22705;SDS011;11520;51.198;4.468;2022-12-18T13:52:43;28.80;;;15.45;;
22705;SDS011;11520;51.198;4.468;2022-12-18T13:55:14;26.20;;;14.95;;
22705;SDS011;11520;51.198;4.468;2022-12-18T13:57:43;27.00;;;16.25;;
22705;SDS011;11520;51.198;4.468;2022-12-18T14:02:46;35.67;;;18.05;;
22705;SDS011;11520;51.198;4.468;2022-12-18T14:05:29;31.25;;;16.42;;
22705;SDS011;11520;51.198;4.468;2022-12-18T14:08:04;26.25;;;16.58;;
22705;SDS011;11520;51.198;4.468;2022-12-18T14:10:40;30.50;;;17.52;;
22705;SDS011;11520;51.198;4.468;2022-12-18T14:13:09;27.02;;;16.95;;
22705;SDS011;11520;51.198;4.468;2022-12-18T14:15:41;29.15;;;16.80;;
22705;SDS011;11520;51.198;4.468;2022-12-18T14:18:24;29.73;;;15.95;;
22705;SDS011;11520;51.198;4.468;2022-12-18T14:21:02;31.48;;;16.65;;
22705;SDS011;11520;51.198;4.468;2022-12-18T14:23:41;26.85;;;17.05;;
22705;SDS011;11520;51.198;4.468;2022-12-18T14:29:20;26.10;;;16.83;;
22705;SDS011;11520;51.198;4.468;2022-12-18T14:34:51;31.55;;;18.30;;
22705;SDS011;11520;51.198;4.468;2022-12-18T14:37:25;28.73;;;17.50;;
22705;SDS011;11520;51.198;4.468;2022-12-18T14:39:54;29.80;;;17.42;;
22705;SDS011;11520;51.198;4.468;2022-12-18T14:42:25;30.48;;;17.73;;
22705;SDS011;11520;51.198;4.468;2022-12-18T14:47:59;30.38;;;17.38;;
22705;SDS011;11520;51.198;4.468;2022-12-18T14:50:27;30.35;;;17.85;;
22705;SDS011;11520;51.198;4.468;2022-12-18T14:52:54;32.83;;;18.55;;
22705;SDS011;11520;51.198;4.468;2022-12-18T14:55:20;32.25;;;18.60;;
22705;SDS011;11520;51.198;4.468;2022-12-18T14:57:49;32.55;;;18.45;;
22705;SDS011;11520;51.198;4.468;2022-12-18T15:00:21;32.80;;;18.45;;
22705;SDS011;11520;51.198;4.468;2022-12-18T15:02:50;32.25;;;19.77;;
22705;SDS011;11520;51.198;4.468;2022-12-18T15:05:26;38.40;;;19.08;;
22705;SDS011;11520;51.198;4.468;2022-12-18T15:07:55;35.25;;;19.55;;
22705;SDS011;11520;51.198;4.468;2022-12-18T15:10:29;36.63;;;20.17;;
22705;SDS011;11520;51.198;4.468;2022-12-18T15:15:46;36.45;;;19.38;;
22705;SDS011;11520;51.198;4.468;2022-12-18T15:18:16;33.97;;;20.27;;
22705;SDS011;11520;51.198;4.468;2022-12-18T15:25:59;31.73;;;19.52;;
22705;SDS011;11520;51.198;4.468;2022-12-18T15:28:35;31.77;;;19.13;;
22705;SDS011;11520;51.198;4.468;2022-12-18T15:33:38;33.85;;;18.85;;
22705;SDS011;11520;51.198;4.468;2022-12-18T15:36:13;35.80;;;19.60;;
22705;SDS011;11520;51.198;4.468;2022-12-18T15:38:41;37.40;;;19.95;;
22705;SDS011;11520;51.198;4.468;2022-12-18T15:41:13;36.33;;;20.20;;
22705;SDS011;11520;51.198;4.468;2022-12-18T15:43:40;36.08;;;20.38;;
22705;SDS011;11520;51.198;4.468;2022-12-18T15:46:11;36.00;;;19.88;;
22705;SDS011;11520;51.198;4.468;2022-12-18T15:48:45;34.42;;;19.52;;
22705;SDS011;11520;51.198;4.468;2022-12-18T15:54:00;37.10;;;20.70;;
22705;SDS011;11520;51.198;4.468;2022-12-18T15:56:28;38.80;;;20.02;;
22705;SDS011;11520;51.198;4.468;2022-12-18T15:59:15;37.78;;;20.85;;
22705;SDS011;11520;51.198;4.468;2022-12-18T16:01:46;37.50;;;20.77;;
22705;SDS011;11520;51.198;4.468;2022-12-18T16:04:16;40.08;;;20.98;;
22705;SDS011;11520;51.198;4.468;2022-12-18T16:06:51;38.28;;;21.00;;
22705;SDS011;11520;51.198;4.468;2022-12-18T16:09:17;35.88;;;20.45;;
22705;SDS011;11520;51.198;4.468;2022-12-18T16:11:43;35.13;;;21.45;;
22705;SDS011;11520;51.198;4.468;2022-12-18T16:14:16;40.08;;;20.98;;
22705;SDS011;11520;51.198;4.468;2022-12-18T16:16:42;40.42;;;20.95;;
22705;SDS011;11520;51.198;4.468;2022-12-18T16:19:10;40.78;;;21.02;;
22705;SDS011;11520;51.198;4.468;2022-12-18T16:21:35;36.35;;;19.50;;
22705;SDS011;11520;51.198;4.468;2022-12-18T16:24:01;35.08;;;19.73;;
22705;SDS011;11520;51.198;4.468;2022-12-18T16:26:27;39.13;;;20.67;;
22705;SDS011;11520;51.198;4.468;2022-12-18T16:28:54;33.88;;;18.85;;
22705;SDS011;11520;51.198;4.468;2022-12-18T16:31:19;39.42;;;20.90;;
22705;SDS011;11520;51.198;4.468;2022-12-18T16:33:45;38.83;;;21.63;;
22705;SDS011;11520;51.198;4.468;2022-12-18T16:36:12;39.58;;;20.52;;
22705;SDS011;11520;51.198;4.468;2022-12-18T16:38:38;40.40;;;21.90;;
22705;SDS011;11520;51.198;4.468;2022-12-18T16:41:15;37.58;;;20.13;;
22705;SDS011;11520;51.198;4.468;2022-12-18T16:43:57;39.63;;;20.83;;
22705;SDS011;11520;51.198;4.468;2022-12-18T16:46:25;39.78;;;21.08;;
22705;SDS011;11520;51.198;4.468;2022-12-18T16:48:50;38.67;;;20.20;;
22705;SDS011;11520;51.198;4.468;2022-12-18T16:51:16;39.42;;;20.35;;
22705;SDS011;11520;51.198;4.468;2022-12-18T16:53:42;38.28;;;19.73;;
22705;SDS011;11520;51.198;4.468;2022-12-18T16:56:07;38.13;;;20.83;;
22705;SDS011;11520;51.198;4.468;2022-12-18T16:58:35;40.22;;;21.02;;
22705;SDS011;11520;51.198;4.468;2022-12-18T17:01:06;41.10;;;20.73;;
22705;SDS011;11520;51.198;4.468;2022-12-18T17:03:33;37.67;;;19.83;;
22705;SDS011;11520;51.198;4.468;2022-12-18T17:06:03;37.42;;;19.73;;
22705;SDS011;11520;51.198;4.468;2022-12-18T17:08:30;35.78;;;20.40;;
22705;SDS011;11520;51.198;4.468;2022-12-18T17:11:02;40.05;;;20.73;;
22705;SDS011;11520;51.198;4.468;2022-12-18T17:13:28;37.75;;;20.80;;